createdAt,value
2018-11-07T00:01:37.768Z,83.77
2018-11-07T00:04:08.304Z,80.90
2018-11-07T00:06:37.663Z,85.50
2018-11-07T00:09:08.721Z,82.83
2018-11-07T00:11:39.020Z,86.07
2018-11-07T00:14:09.167Z,92.07
2018-11-07T00:16:38.860Z,88.53
2018-11-07T00:19:08.320Z,90.37
2018-11-07T00:21:38.201Z,90.77
2018-11-07T00:24:07.600Z,90.50
2018-11-07T00:26:37.170Z,91.70
2018-11-07T00:29:07.054Z,92.67
2018-11-07T00:34:10.141Z,89.17
2018-11-07T00:36:39.880Z,91.03
2018-11-07T00:39:10.899Z,87.27
2018-11-07T00:41:40.540Z,86.00
2018-11-07T00:44:10.287Z,87.03
2018-11-07T00:46:43.840Z,86.57
2018-11-07T00:49:14.080Z,85.60
2018-11-07T00:51:46.303Z,85.37
2018-11-07T00:54:16.040Z,86.50
2018-11-07T00:56:52.123Z,84.90
2018-11-07T00:59:21.912Z,81.23
2018-11-07T01:01:51.583Z,82.10
2018-11-07T01:04:21.288Z,83.07
2018-11-07T01:06:53.603Z,81.87
2018-11-07T01:09:23.413Z,84.33
2018-11-07T01:11:53.440Z,77.10
2018-11-07T01:14:23.202Z,77.43
2018-11-07T01:16:53.622Z,84.70
2018-11-07T01:19:23.603Z,79.40
2018-11-07T01:21:53.424Z,82.03
2018-11-07T01:24:23.243Z,83.60
2018-11-07T01:26:53.164Z,82.80
2018-11-07T01:29:24.322Z,89.33
2018-11-07T01:31:54.024Z,86.87
2018-11-07T01:34:41.425Z,87.20
2018-11-07T01:37:11.363Z,88.37
2018-11-07T01:39:44.703Z,90.00
2018-11-07T01:42:14.524Z,89.70
2018-11-07T01:44:44.185Z,85.17
2018-11-07T01:47:13.924Z,89.83
2018-11-07T01:49:43.585Z,85.30
2018-11-07T01:52:13.337Z,79.83
2018-11-07T01:54:43.403Z,78.37
2018-11-07T01:57:13.145Z,78.40
2018-11-07T01:59:44.124Z,78.27
2018-11-07T02:02:13.766Z,77.53
2018-11-07T02:04:43.494Z,74.27
2018-11-07T02:07:14.539Z,79.13
2018-11-07T02:09:44.380Z,76.87
2018-11-07T02:12:14.480Z,75.93
2018-11-07T02:14:44.179Z,75.90
2018-11-07T02:17:14.300Z,75.77
2018-11-07T02:19:44.179Z,77.17
2018-11-07T02:22:14.020Z,74.83
2018-11-07T02:24:43.740Z,75.03
2018-11-07T02:27:13.482Z,73.77
2018-11-07T02:29:43.160Z,76.87
2018-11-07T02:32:12.884Z,76.73
2018-11-07T02:34:42.781Z,78.80
2018-11-07T02:37:13.262Z,82.40
2018-11-07T02:39:42.900Z,78.13
2018-11-07T02:42:12.420Z,84.80
2018-11-07T02:44:42.320Z,84.43
2018-11-07T02:47:12.081Z,87.83
2018-11-07T02:49:42.280Z,85.73
2018-11-07T02:52:12.000Z,89.63
2018-11-07T02:54:41.780Z,88.47
2018-11-07T02:57:11.440Z,92.43
2018-11-07T02:59:42.420Z,92.80
2018-11-07T03:02:12.061Z,91.43
2018-11-07T03:04:46.041Z,91.20
2018-11-07T03:07:15.783Z,92.43
2018-11-07T03:09:45.421Z,86.40
2018-11-07T03:12:15.201Z,92.73
2018-11-07T03:14:44.901Z,89.83
2018-11-07T03:17:14.540Z,89.80
2018-11-07T03:19:44.719Z,89.73
2018-11-07T03:22:14.546Z,88.60
2018-11-07T03:24:44.226Z,92.17
2018-11-07T03:27:16.401Z,95.57
2018-11-07T03:29:46.108Z,98.07
2018-11-07T03:32:15.922Z,103.80
2018-11-07T03:34:46.300Z,104.40
2018-11-07T03:37:16.241Z,108.60
2018-11-07T03:39:46.133Z,114.90
2018-11-07T03:42:15.981Z,119.93
2018-11-07T03:44:45.740Z,115.67
2018-11-07T03:47:15.481Z,123.03
2018-11-07T03:49:45.441Z,122.87
2018-11-07T03:52:15.041Z,127.50
2018-11-07T03:54:44.740Z,118.10
2018-11-07T03:57:14.343Z,118.83
2018-11-07T03:59:44.422Z,117.63
2018-11-07T04:02:13.954Z,118.07
2018-11-07T04:04:44.320Z,112.83
2018-11-07T04:07:14.054Z,111.23
2018-11-07T04:09:43.859Z,109.47
2018-11-07T04:12:13.519Z,111.17
2018-11-07T04:14:48.260Z,107.13
2018-11-07T04:17:18.090Z,108.93
2018-11-07T04:19:47.679Z,114.17
2018-11-07T04:22:17.439Z,111.57
2018-11-07T04:24:47.199Z,109.37
2018-11-07T04:27:16.939Z,101.87
2018-11-07T04:29:46.699Z,100.60
2018-11-07T04:32:16.439Z,95.63
2018-11-07T04:34:46.524Z,94.30
2018-11-07T04:37:16.519Z,93.77
2018-11-07T04:39:46.719Z,93.87
2018-11-07T04:42:16.922Z,98.07
2018-11-07T04:44:46.759Z,98.63
2018-11-07T04:47:16.698Z,97.67
2018-11-07T04:49:46.512Z,98.03
2018-11-07T04:52:16.198Z,99.00
2018-11-07T04:54:47.458Z,99.37
2018-11-07T04:57:19.419Z,101.37
2018-11-07T04:59:49.778Z,94.73
2018-11-07T05:02:19.878Z,96.57
2018-11-07T05:04:53.355Z,94.23
2018-11-07T05:07:23.018Z,92.57
2018-11-07T05:09:52.717Z,91.80
2018-11-07T05:12:22.619Z,94.47
2018-11-07T05:14:52.664Z,92.80
2018-11-07T05:17:22.418Z,92.13
2018-11-07T05:19:59.320Z,88.93
2018-11-07T05:22:28.957Z,88.73
2018-11-07T05:24:58.718Z,88.43
2018-11-07T05:27:28.857Z,86.20
2018-11-07T05:29:59.041Z,83.17
2018-11-07T05:32:28.959Z,81.80
2018-11-07T05:34:58.703Z,82.73
2018-11-07T05:37:28.450Z,80.03
2018-11-07T05:39:58.131Z,75.47
2018-11-07T05:42:28.457Z,74.30
2018-11-07T05:44:58.317Z,79.90
2018-11-07T05:47:29.239Z,76.47
2018-11-07T05:49:59.179Z,73.80
2018-11-07T05:52:28.939Z,76.87
2018-11-07T05:54:59.184Z,76.33
2018-11-07T05:57:29.378Z,71.03
2018-11-07T05:59:59.518Z,73.20
2018-11-07T06:02:29.279Z,74.50
2018-11-07T06:04:58.981Z,68.80
2018-11-07T06:07:29.142Z,69.50
2018-11-07T06:09:58.939Z,74.27
2018-11-07T06:12:28.597Z,70.53
2018-11-07T06:14:58.578Z,71.73
2018-11-07T06:17:28.838Z,66.73
2018-11-07T06:19:58.558Z,67.30
2018-11-07T06:22:28.306Z,68.63
2018-11-07T06:24:58.148Z,65.53
2018-11-07T06:27:28.197Z,66.77
2018-11-07T06:29:58.140Z,69.27
2018-11-07T06:32:27.917Z,64.60
2018-11-07T06:34:58.078Z,69.10
2018-11-07T06:37:28.078Z,68.63
2018-11-07T06:39:57.817Z,70.43
2018-11-07T06:42:32.114Z,73.60
2018-11-07T06:45:01.848Z,75.10
2018-11-07T06:47:32.298Z,72.20
2018-11-07T06:50:02.406Z,72.47
2018-11-07T06:52:32.397Z,72.20
2018-11-07T06:55:02.245Z,71.50
2018-11-07T06:57:32.538Z,72.30
2018-11-07T07:00:02.658Z,73.20
2018-11-07T07:02:32.845Z,75.17
2018-11-07T07:05:02.606Z,71.97
2018-11-07T07:07:32.645Z,73.07
2018-11-07T07:10:02.352Z,83.57
2018-11-07T07:12:32.468Z,73.33
2018-11-07T07:15:02.454Z,80.60
2018-11-07T07:17:32.763Z,75.57
2018-11-07T07:20:02.985Z,84.10
2018-11-07T07:22:32.847Z,84.43
2018-11-07T07:25:03.136Z,83.27
2018-11-07T07:27:33.243Z,83.13
2018-11-07T07:30:03.025Z,84.60
2018-11-07T07:32:33.661Z,82.37
2018-11-07T07:35:03.908Z,82.77
2018-11-07T07:37:33.904Z,84.73
2018-11-07T07:40:08.163Z,84.90
2018-11-07T07:42:38.840Z,83.13
2018-11-07T07:45:13.139Z,86.40
2018-11-07T07:47:43.779Z,82.87
2018-11-07T07:50:14.821Z,82.53
2018-11-07T07:52:46.421Z,76.80
2018-11-07T07:55:16.132Z,79.83
2018-11-07T07:57:46.139Z,79.97
2018-11-07T08:00:18.896Z,78.23
2018-11-07T08:02:51.442Z,78.10
2018-11-07T08:05:21.832Z,75.87
2018-11-07T08:07:51.962Z,72.50
2018-11-07T08:10:22.899Z,68.63
2018-11-07T08:12:53.219Z,65.07
2018-11-07T08:15:23.099Z,68.50
2018-11-07T08:17:53.199Z,65.30
2018-11-07T08:20:23.139Z,61.40
2018-11-07T08:22:53.039Z,61.87
2018-11-07T08:25:23.019Z,59.73
2018-11-07T08:27:52.735Z,59.00
2018-11-07T08:30:23.079Z,57.50
2018-11-07T08:32:53.223Z,57.67
2018-11-07T08:35:23.156Z,57.93
2018-11-07T08:37:53.123Z,55.23
2018-11-07T08:40:24.463Z,51.00
2018-11-07T08:42:58.463Z,50.50
2018-11-07T08:45:28.524Z,49.20
2018-11-07T08:47:58.554Z,45.50
2018-11-07T08:50:28.265Z,42.73
2018-11-07T08:52:58.081Z,42.30
2018-11-07T08:55:28.021Z,40.70
2018-11-07T08:57:58.061Z,37.43
2018-11-07T09:00:27.776Z,39.80
2018-11-07T09:02:58.266Z,38.63
2018-11-07T09:05:28.483Z,41.70
2018-11-07T09:07:58.143Z,39.07
2018-11-07T09:10:28.003Z,35.50
2018-11-07T09:12:57.979Z,34.67
2018-11-07T09:15:27.719Z,32.73
2018-11-07T09:17:57.659Z,30.80
2018-11-07T09:20:27.399Z,30.87
2018-11-07T09:22:57.359Z,30.93
2018-11-07T09:25:27.138Z,28.20
2018-11-07T09:27:56.979Z,29.53
2018-11-07T09:30:26.819Z,30.20
2018-11-07T09:32:58.019Z,31.50
2018-11-07T09:35:28.259Z,29.27
2018-11-07T09:37:58.219Z,28.63
2018-11-07T09:40:28.459Z,26.77
2018-11-07T09:42:58.339Z,28.83
2018-11-07T09:45:28.459Z,24.93
2018-11-07T09:47:58.175Z,24.83
2018-11-07T09:50:27.958Z,26.00
2018-11-07T09:52:57.759Z,29.60
2018-11-07T09:55:27.805Z,29.13
2018-11-07T09:57:57.579Z,29.30
2018-11-07T10:00:28.161Z,26.73
2018-11-07T10:02:58.061Z,24.63
2018-11-07T10:05:27.900Z,27.33
2018-11-07T10:07:57.701Z,27.37
2018-11-07T10:10:27.672Z,26.27
2018-11-07T10:12:57.522Z,26.30
2018-11-07T10:15:27.522Z,27.37
2018-11-07T10:17:57.410Z,25.47
2018-11-07T10:20:29.001Z,28.30
2018-11-07T10:22:58.683Z,25.60
2018-11-07T10:25:28.469Z,24.93
2018-11-07T10:28:00.265Z,25.60
2018-11-07T10:30:30.335Z,26.53
2018-11-07T10:33:04.320Z,25.30
2018-11-07T10:35:34.341Z,26.40
2018-11-07T10:38:04.422Z,24.53
2018-11-07T10:40:34.800Z,25.27
2018-11-07T10:43:05.220Z,25.70
2018-11-07T10:45:39.220Z,24.60
2018-11-07T10:48:08.980Z,24.00
2018-11-07T10:50:39.142Z,23.53
2018-11-07T10:53:08.980Z,25.50
2018-11-07T10:55:38.669Z,25.10
2018-11-07T10:58:08.621Z,24.83
2018-11-07T11:00:43.737Z,24.40
2018-11-07T11:03:28.572Z,24.27
2018-11-07T11:05:58.231Z,24.57
2018-11-07T11:08:28.022Z,25.97
2018-11-07T11:10:57.749Z,25.63
2018-11-07T11:16:01.722Z,24.63
2018-11-07T11:21:06.063Z,25.77
2018-11-07T11:23:36.162Z,26.07
2018-11-07T11:26:06.722Z,25.40
2018-11-07T11:28:36.662Z,25.53
2018-11-07T11:31:06.842Z,26.07
2018-11-07T11:33:38.785Z,24.10
2018-11-07T11:36:08.803Z,27.63
2018-11-07T11:38:38.862Z,25.23
2018-11-07T11:41:09.335Z,25.30
2018-11-07T11:43:39.362Z,25.70
2018-11-07T11:46:09.343Z,23.60
2018-11-07T11:48:39.543Z,24.70
2018-11-07T11:51:09.645Z,23.00
2018-11-07T11:53:39.760Z,23.57
2018-11-07T11:56:09.720Z,24.13
2018-11-07T11:58:39.842Z,23.23
2018-11-07T12:01:09.983Z,24.83
2018-11-07T12:03:40.308Z,23.90
2018-11-07T12:06:10.081Z,23.47
2018-11-07T12:08:39.977Z,24.87
2018-11-07T12:11:09.781Z,23.83
2018-11-07T12:13:39.864Z,23.07
2018-11-07T12:16:09.961Z,24.43
2018-11-07T12:18:41.799Z,23.37
2018-11-07T12:21:12.807Z,23.40
2018-11-07T12:23:43.419Z,22.10
2018-11-07T12:26:14.898Z,22.73
2018-11-07T12:28:44.898Z,22.53
2018-11-07T12:31:15.581Z,22.43
2018-11-07T12:33:45.723Z,21.40
2018-11-07T12:36:15.991Z,21.23
2018-11-07T12:38:46.463Z,22.27
2018-11-07T12:41:17.025Z,23.17
2018-11-07T12:43:54.244Z,22.03
2018-11-07T12:46:24.303Z,22.13
2018-11-07T12:48:58.863Z,22.70
2018-11-07T12:51:33.003Z,22.57
2018-11-07T12:54:03.022Z,21.83
2018-11-07T12:56:33.282Z,22.37
2018-11-07T13:01:47.160Z,20.70
2018-11-07T13:04:17.260Z,22.00
2018-11-07T13:06:47.224Z,22.23
2018-11-07T13:09:17.204Z,22.30
2018-11-07T13:11:47.331Z,22.93
2018-11-07T13:14:17.426Z,22.07
2018-11-07T13:17:04.444Z,23.23
2018-11-07T13:19:34.265Z,23.43
2018-11-07T13:22:04.437Z,25.30
2018-11-07T13:24:34.501Z,27.90
2018-11-07T13:27:04.842Z,27.13
2018-11-07T13:29:34.861Z,29.20
2018-11-07T13:32:06.797Z,28.37
2018-11-07T13:34:36.892Z,29.93
2018-11-07T13:37:09.513Z,28.27
2018-11-07T13:39:39.281Z,29.33
2018-11-07T13:42:10.667Z,29.50
2018-11-07T13:44:40.818Z,29.30
2018-11-07T13:47:10.999Z,28.93
2018-11-07T13:49:40.998Z,30.23
2018-11-07T13:52:11.319Z,30.97
2018-11-07T13:54:41.242Z,29.80
2018-11-07T13:57:15.399Z,30.30
2018-11-07T13:59:46.439Z,28.20
2018-11-07T14:02:17.170Z,28.63
2018-11-07T14:04:47.845Z,30.50
2018-11-07T14:07:18.166Z,28.53
2018-11-07T14:09:48.621Z,28.80
2018-11-07T14:12:18.720Z,29.77
2018-11-07T14:14:53.382Z,30.20
2018-11-07T14:17:23.803Z,29.83
2018-11-07T14:19:57.865Z,30.53
2018-11-07T14:22:28.000Z,28.50
2018-11-07T14:24:59.223Z,30.10
2018-11-07T14:27:29.803Z,30.00
2018-11-07T14:30:00.501Z,29.30
2018-11-07T14:32:37.901Z,30.47
2018-11-07T14:35:07.724Z,28.40
2018-11-07T14:37:37.460Z,29.77
2018-11-07T14:40:07.401Z,30.87
2018-11-07T14:42:41.181Z,32.13
2018-11-07T14:45:11.980Z,31.83
2018-11-07T14:47:42.472Z,31.73
2018-11-07T14:50:14.565Z,32.63
2018-11-07T14:52:44.340Z,32.93
2018-11-07T14:55:14.380Z,32.50
2018-11-07T14:57:44.059Z,31.77
2018-11-07T15:00:22.331Z,33.10
2018-11-07T15:02:52.081Z,34.07
2018-11-07T15:05:22.647Z,33.77
2018-11-07T15:07:57.879Z,33.80
2018-11-07T15:10:27.712Z,34.80
2018-11-07T15:12:58.404Z,33.60
2018-11-07T15:15:28.110Z,35.97
2018-11-07T15:18:01.823Z,34.37
2018-11-07T15:20:31.562Z,36.83
2018-11-07T15:23:01.666Z,36.83
2018-11-07T15:25:32.003Z,36.53
2018-11-07T15:28:02.143Z,35.97
2018-11-07T15:30:32.243Z,37.03
2018-11-07T15:33:02.282Z,37.50
2018-11-07T15:35:33.382Z,37.47
2018-11-07T15:38:03.442Z,37.40
2018-11-07T15:40:33.421Z,38.17
2018-11-07T15:43:03.460Z,39.97
2018-11-07T15:45:33.680Z,39.63
2018-11-07T15:48:03.660Z,43.03
2018-11-07T15:50:40.162Z,52.90
2018-11-07T15:53:10.341Z,46.13
2018-11-07T15:55:40.520Z,46.37
2018-11-07T15:58:10.321Z,46.20
2018-11-07T16:00:40.321Z,43.80
2018-11-07T16:03:10.942Z,45.13
2018-11-07T16:05:41.002Z,45.03
2018-11-07T16:08:10.924Z,47.67
2018-11-07T16:10:41.701Z,47.93
2018-11-07T16:13:12.237Z,48.73
2018-11-07T16:15:42.650Z,45.60
2018-11-07T16:18:13.281Z,44.03
2018-11-07T16:20:43.474Z,44.63
2018-11-07T16:23:18.940Z,44.33
2018-11-07T16:25:49.342Z,44.50
2018-11-07T16:28:19.723Z,44.10
2018-11-07T16:30:50.002Z,43.87
2018-11-07T16:33:24.389Z,44.70
2018-11-07T16:35:54.486Z,47.70
2018-11-07T16:38:24.603Z,45.43
2018-11-07T16:40:54.868Z,46.43
2018-11-07T16:43:25.023Z,44.77
2018-11-07T16:45:55.724Z,45.47
2018-11-07T16:48:26.100Z,45.67
2018-11-07T16:50:56.499Z,43.90
2018-11-07T16:53:26.621Z,45.27
2018-11-07T16:56:01.760Z,45.03
2018-11-07T16:58:32.080Z,45.03
2018-11-07T17:01:02.681Z,44.43
2018-11-07T17:06:07.201Z,45.17
2018-11-07T17:08:37.263Z,46.00
2018-11-07T17:11:07.682Z,48.83
2018-11-07T17:13:38.058Z,49.23
2018-11-07T17:16:08.462Z,49.30
2018-11-07T17:18:38.739Z,48.37
2018-11-07T17:21:08.959Z,49.40
2018-11-07T17:23:40.348Z,48.20
2018-11-07T17:26:10.439Z,48.33
2018-11-07T17:28:41.119Z,48.97
2018-11-07T17:31:11.580Z,49.27
2018-11-07T17:33:41.579Z,52.33
2018-11-07T17:36:11.999Z,53.87
2018-11-07T17:38:42.099Z,55.83
2018-11-07T17:41:12.479Z,58.73
2018-11-07T17:43:43.199Z,59.17
2018-11-07T17:46:13.640Z,56.13
2018-11-07T17:48:44.062Z,56.37
2018-11-07T17:51:14.301Z,55.80
2018-11-07T17:53:44.621Z,55.77
2018-11-07T17:56:14.899Z,54.63
2018-11-07T17:58:49.499Z,54.70
2018-11-07T18:01:19.889Z,55.70
2018-11-07T18:03:50.290Z,55.70
2018-11-07T18:06:20.970Z,57.37
2018-11-07T18:08:51.370Z,58.07
2018-11-07T18:11:21.828Z,53.20
2018-11-07T18:13:52.429Z,53.10
2018-11-07T18:16:22.555Z,56.43
2018-11-07T18:18:52.738Z,54.00
2018-11-07T18:21:23.069Z,51.73
2018-11-07T18:23:53.289Z,54.10
2018-11-07T18:26:23.948Z,53.67
2018-11-07T18:28:54.997Z,54.17
2018-11-07T18:31:25.612Z,53.30
2018-11-07T18:33:56.170Z,53.00
2018-11-07T18:36:30.882Z,54.90
2018-11-07T18:39:07.962Z,55.40
2018-11-07T18:41:38.941Z,60.90
2018-11-07T18:44:09.460Z,63.57
2018-11-07T18:46:40.168Z,63.00
2018-11-07T18:49:10.462Z,57.63
2018-11-07T18:51:40.650Z,59.40
2018-11-07T18:54:10.833Z,63.00
2018-11-07T18:56:41.146Z,61.37
2018-11-07T18:59:15.564Z,60.70
2018-11-07T19:01:46.120Z,60.57
2018-11-07T19:04:16.500Z,60.10
2018-11-07T19:06:46.718Z,63.50
2018-11-07T19:09:16.920Z,61.13
2018-11-07T19:11:47.359Z,58.53
2018-11-07T19:14:17.471Z,57.73
2018-11-07T19:16:47.855Z,57.20
2018-11-07T19:19:18.040Z,57.37
2018-11-07T19:21:48.123Z,59.13
2018-11-07T19:24:18.380Z,60.80
2018-11-07T19:26:48.675Z,59.73
2018-11-07T19:29:22.783Z,59.90
2018-11-07T19:31:53.139Z,62.13
2018-11-07T19:34:23.240Z,62.07
2018-11-07T19:36:53.361Z,63.67
2018-11-07T19:39:23.660Z,62.50
2018-11-07T19:41:53.800Z,64.63
2018-11-07T19:44:24.039Z,66.33
2018-11-07T19:46:54.946Z,68.53
2018-11-07T19:49:25.060Z,66.93
2018-11-07T19:51:55.359Z,64.43
2018-11-07T19:54:25.773Z,62.60
2018-11-07T19:56:55.990Z,62.97
2018-11-07T19:59:26.364Z,58.27
2018-11-07T20:02:01.764Z,57.70
2018-11-07T20:04:31.899Z,58.93
2018-11-07T20:07:01.956Z,59.13
2018-11-07T20:09:32.138Z,58.03
2018-11-07T20:12:02.410Z,57.77
2018-11-07T20:14:32.550Z,53.40
2018-11-07T20:17:02.607Z,56.97
2018-11-07T20:19:33.130Z,61.13
2018-11-07T20:22:03.552Z,57.87
2018-11-07T20:24:33.989Z,65.40
2018-11-07T20:27:04.393Z,65.07
2018-11-07T20:29:34.570Z,61.70
2018-11-07T20:32:05.071Z,65.97
2018-11-07T20:34:35.171Z,62.73
2018-11-07T20:37:05.459Z,64.23
2018-11-07T20:39:36.103Z,62.90
2018-11-07T20:42:06.655Z,63.33
2018-11-07T20:44:36.961Z,66.00
2018-11-07T20:47:07.450Z,74.07
2018-11-07T20:49:41.924Z,73.70
2018-11-07T20:52:12.321Z,65.03
2018-11-07T20:54:42.707Z,67.90
2018-11-07T20:57:12.924Z,68.03
2018-11-07T20:59:43.048Z,70.07
2018-11-07T21:02:13.785Z,69.23
2018-11-07T21:04:44.364Z,73.07
2018-11-07T21:07:18.647Z,71.80
2018-11-07T21:09:48.763Z,78.70
2018-11-07T21:14:52.979Z,75.43
2018-11-07T21:17:23.041Z,75.70
2018-11-07T21:19:53.321Z,72.43
2018-11-07T21:22:24.009Z,81.00
2018-11-07T21:24:54.018Z,79.00
2018-11-07T21:27:24.303Z,79.60
2018-11-07T21:29:54.760Z,78.23
2018-11-07T21:32:25.141Z,82.07
2018-11-07T21:34:55.549Z,85.80
2018-11-07T21:37:25.919Z,88.60
2018-11-07T21:39:56.155Z,77.77
2018-11-07T21:42:26.373Z,70.90
2018-11-07T21:44:56.677Z,78.23
2018-11-07T21:47:26.800Z,83.67
2018-11-07T21:49:57.098Z,77.23
2018-11-07T21:52:27.398Z,83.20
2018-11-07T21:54:58.138Z,67.77
2018-11-07T21:57:32.419Z,68.43
2018-11-07T22:00:02.484Z,64.27
2018-11-07T22:02:32.805Z,67.13
2018-11-07T22:05:02.978Z,65.17
2018-11-07T22:07:33.360Z,65.17
2018-11-07T22:10:08.236Z,66.90
2018-11-07T22:12:39.640Z,62.47
2018-11-07T22:15:10.900Z,66.73
2018-11-07T22:17:41.565Z,64.50
2018-11-07T22:20:14.160Z,65.87
2018-11-07T22:22:45.057Z,61.17
2018-11-07T22:25:15.722Z,66.13
2018-11-07T22:27:45.881Z,63.20
2018-11-07T22:30:17.158Z,66.67
2018-11-07T22:32:47.897Z,73.23
2018-11-07T22:35:18.917Z,62.37
2018-11-07T22:37:49.138Z,65.43
2018-11-07T22:40:20.737Z,70.33
2018-11-07T22:42:51.418Z,89.67
2018-11-07T22:45:21.643Z,64.93
2018-11-07T22:47:52.164Z,66.80
2018-11-07T22:50:26.405Z,68.23
2018-11-07T22:52:56.804Z,75.20
2018-11-07T22:55:26.626Z,86.47
2018-11-07T22:57:56.606Z,87.07
2018-11-07T23:00:31.673Z,68.90
2018-11-07T23:03:01.665Z,71.53
2018-11-07T23:05:31.577Z,71.70
2018-11-07T23:08:01.587Z,70.80
2018-11-07T23:10:31.527Z,66.03
2018-11-07T23:13:01.620Z,70.73
2018-11-07T23:15:36.261Z,65.77
2018-11-07T23:18:07.121Z,64.03
2018-11-07T23:20:37.543Z,66.27
2018-11-07T23:23:08.040Z,65.03
2018-11-07T23:25:38.984Z,61.43
2018-11-07T23:28:09.440Z,64.77
2018-11-07T23:30:39.741Z,66.40
2018-11-07T23:33:10.245Z,63.47
2018-11-07T23:35:40.781Z,65.70
2018-11-07T23:38:11.161Z,63.30
2018-11-07T23:40:41.501Z,62.93
2018-11-07T23:43:11.921Z,77.90
2018-11-07T23:45:42.261Z,65.70
2018-11-07T23:48:12.921Z,61.73
2018-11-07T23:50:43.461Z,62.27
2018-11-07T23:53:15.461Z,62.77
2018-11-07T23:55:46.041Z,63.13
2018-11-07T23:58:16.490Z,61.37
